Airfield :
LOGIN :

Register | Disclaimer

   EN    FR    IT 

 










Legend :    VFR   Marginal VFR   IFR   Intensive IFR   Very Intensive IFR
Visi :
Ceiling :
>= 8 km
>= 3000ft
5 to 8 km
1000 to 3000 ft
1500m to 5 km
500 to 1000 ft
800 to 1500m
200 to 500 ft
< 800m
< 200 ft
Symbols :   Thunderstorms  Fog  Heavy snow  Heavy precipitations  Wind > 20 kt
SIGMETs :     Misc.  Thunderstorms  Icing  Turbulence  Mountain Waves  Volcanic Ashes







- Airport Elevation : 265 ft
- IATA code : FOG


LIBF - Foggia / Gino Lisa

CURRENT METAR :
  • 231450Z 31009KT 9999 BKN030 10/06 Q1023

EXPIRED METARs :
  • 231350Z 32011KT 9999 BKN040 10/06 Q1022
  • 231250Z 30011KT 9999 SCT040 11/05 Q1021

Expired Forecast.
No reported NOTAMs for that airfield.
2 SIGMETs reported for the Brindisi FIR (LIBB) :
 
Severe turbulence
LIBB SIGMET 3 VALID 231600/232000 LIIB
LIBB BRINDISI FIR SEV TURB FCST ENTIRE FIR FL230/390 STNR NC=
Severe turbulence
LIBB SIGMET 2 VALID 231200/231600 LIIB
LIBB BRINDISI FIR SEV TURB FCST WI N3851 E01717 - N4131 E01805 - N4329 E01431 - N4332 E01324 - N4257 E01303 - N4128 E01422 - N4110 E01509 - N3916 E01610 - N3858 E01633 - N3851 E01717 FL230/390 STNR NC=



MET'MAP, your aeronautical weather chart ! - Copyright ORBIFLY December 2007 - Disclaimer

ORBIFLY MET'MAP TEAM :

Programming & Development : Alexandra Zaïnal
Concept & Development : Baudouin d'Aumeries
Co-Development & Prog : Marc-Olivier Méhu
Technical & hardware support : Manuel Goepfert

Contact : metmap@orbifly.com




SOURCES & CREDITS :

   NOAA